createdAt,value
2019-01-27T00:01:12.077Z,18.73
2019-01-27T00:03:19.912Z,17.85
2019-01-27T00:05:25.962Z,13.88
2019-01-27T00:07:31.818Z,19.52
2019-01-27T00:09:55.043Z,15.45
2019-01-27T00:12:00.478Z,15.03
2019-01-27T00:14:06.297Z,14.40
2019-01-27T00:16:29.530Z,14.05
2019-01-27T00:18:36.069Z,15.85
2019-01-27T00:20:42.232Z,15.98
2019-01-27T00:22:49.359Z,17.05
2019-01-27T00:25:13.273Z,18.77
2019-01-27T00:27:36.723Z,16.73
2019-01-27T00:29:44.863Z,16.00
2019-01-27T00:31:50.594Z,15.48
2019-01-27T00:34:13.762Z,19.40
2019-01-27T00:36:19.805Z,18.27
2019-01-27T00:38:25.911Z,19.87
2019-01-27T00:40:31.853Z,16.60
2019-01-27T00:42:56.690Z,18.73
2019-01-27T00:45:19.914Z,17.27
2019-01-27T00:47:33.087Z,19.67
2019-01-27T00:49:40.722Z,19.02
2019-01-27T00:51:48.073Z,20.57
2019-01-27T00:53:54.367Z,17.82
2019-01-27T00:55:59.889Z,17.70
2019-01-27T00:58:05.617Z,19.23
2019-01-27T01:00:33.286Z,19.17
2019-01-27T01:04:50.374Z,19.37
2019-01-27T01:07:13.892Z,16.35
2019-01-27T01:09:39.046Z,15.28
2019-01-27T01:12:02.232Z,15.30
2019-01-27T01:14:07.837Z,16.80
2019-01-27T01:16:13.281Z,16.15
2019-01-27T01:18:18.920Z,16.42
2019-01-27T01:20:42.073Z,15.85
2019-01-27T01:22:51.228Z,15.93
2019-01-27T01:24:58.385Z,16.32
2019-01-27T01:27:03.879Z,15.25
2019-01-27T01:29:15.667Z,15.98
2019-01-27T01:31:21.199Z,16.05
2019-01-27T01:35:47.926Z,17.37
2019-01-27T01:38:08.329Z,17.07
2019-01-27T01:42:37.377Z,15.50
2019-01-27T01:45:00.901Z,15.85
2019-01-27T01:47:09.934Z,17.80
2019-01-27T01:49:15.437Z,18.95
2019-01-27T01:51:38.761Z,17.37
2019-01-27T01:53:44.389Z,17.87
2019-01-27T01:55:49.821Z,15.30
2019-01-27T01:57:55.346Z,19.00
2019-01-27T02:00:20.540Z,17.55
2019-01-27T02:02:43.821Z,17.70
2019-01-27T02:04:49.621Z,16.95
2019-01-27T02:06:55.989Z,17.07
2019-01-27T02:09:01.431Z,18.40
2019-01-27T02:11:24.630Z,16.62
2019-01-27T02:13:47.911Z,18.05
2019-01-27T02:16:02.966Z,20.15
2019-01-27T02:18:09.334Z,18.95
2019-01-27T02:20:44.025Z,21.33
2019-01-27T02:23:07.346Z,20.62
2019-01-27T02:25:18.749Z,18.20
2019-01-27T02:27:28.726Z,19.98
2019-01-27T02:29:34.189Z,22.27
2019-01-27T02:31:57.725Z,21.35
2019-01-27T02:34:20.776Z,16.93
2019-01-27T02:38:58.243Z,12.20
2019-01-27T02:41:17.765Z,12.70
2019-01-27T02:43:23.237Z,13.90
2019-01-27T02:45:29.970Z,12.63
2019-01-27T02:47:36.446Z,12.47
2019-01-27T02:49:42.109Z,9.50
2019-01-27T02:51:47.620Z,9.85
2019-01-27T02:54:10.581Z,10.32
2019-01-27T02:56:16.050Z,9.60
2019-01-27T02:58:21.505Z,7.28
2019-01-27T03:00:27.202Z,9.28
2019-01-27T03:02:32.910Z,9.48
2019-01-27T03:07:32.349Z,9.18
2019-01-27T03:09:55.584Z,6.15
2019-01-27T03:12:04.158Z,9.30
2019-01-27T03:14:14.244Z,7.90
2019-01-27T03:16:19.695Z,7.55
2019-01-27T03:18:42.798Z,6.30
2019-01-27T03:21:17.553Z,5.65
2019-01-27T03:23:24.466Z,6.08
2019-01-27T03:25:29.940Z,6.25
2019-01-27T03:29:47.397Z,5.80
2019-01-27T03:36:16.829Z,6.95
2019-01-27T03:38:22.541Z,7.20
2019-01-27T03:40:28.274Z,5.95
2019-01-27T03:42:33.716Z,6.37
2019-01-27T03:44:56.861Z,7.87
2019-01-27T03:47:08.270Z,7.03
2019-01-27T03:49:16.770Z,8.13
2019-01-27T03:51:22.215Z,7.87
2019-01-27T03:53:29.890Z,7.33
2019-01-27T03:55:35.470Z,5.58
2019-01-27T03:57:42.651Z,6.87
2019-01-27T04:00:08.125Z,6.40
2019-01-27T04:02:16.145Z,6.35
2019-01-27T04:04:21.883Z,6.03
2019-01-27T04:06:27.974Z,5.60
2019-01-27T04:08:51.487Z,6.08
2019-01-27T04:10:56.899Z,5.80
2019-01-27T04:13:02.708Z,5.60
2019-01-27T04:15:09.022Z,4.42
2019-01-27T04:17:32.157Z,6.40
2019-01-27T04:19:55.293Z,6.90
2019-01-27T04:22:01.091Z,5.55
2019-01-27T04:24:07.574Z,7.42
2019-01-27T04:26:14.705Z,7.50
2019-01-27T04:28:38.169Z,7.33
2019-01-27T04:30:43.587Z,8.35
2019-01-27T04:32:50.833Z,11.55
2019-01-27T04:37:16.517Z,9.75
2019-01-27T04:39:22.159Z,11.55
2019-01-27T04:41:30.269Z,10.72
2019-01-27T04:43:35.698Z,9.50
2019-01-27T04:45:59.193Z,8.83
2019-01-27T04:48:22.344Z,8.63
2019-01-27T04:50:45.634Z,9.58
2019-01-27T04:52:53.175Z,8.93
2019-01-27T04:54:58.654Z,8.58
2019-01-27T04:57:05.905Z,8.95
2019-01-27T04:59:17.200Z,9.53
2019-01-27T05:01:24.364Z,9.20
2019-01-27T05:05:51.291Z,8.63
2019-01-27T05:08:14.456Z,8.28
2019-01-27T05:10:37.747Z,6.95
2019-01-27T05:12:51.537Z,7.17
2019-01-27T05:14:56.991Z,8.80
2019-01-27T05:17:02.887Z,7.95
2019-01-27T05:19:23.342Z,6.90
2019-01-27T05:21:46.528Z,7.47
2019-01-27T05:23:54.859Z,7.40
2019-01-27T05:26:01.765Z,6.62
2019-01-27T05:28:07.577Z,5.80
2019-01-27T05:30:30.806Z,6.30
2019-01-27T05:32:36.500Z,6.78
2019-01-27T05:34:42.011Z,7.25
2019-01-27T05:36:51.471Z,6.58
2019-01-27T05:39:01.069Z,5.67
2019-01-27T05:41:06.858Z,6.17
2019-01-27T05:43:12.685Z,6.95
2019-01-27T05:45:35.966Z,6.65
2019-01-27T05:47:59.110Z,7.08
2019-01-27T05:50:22.646Z,7.00
2019-01-27T05:52:46.215Z,9.40
2019-01-27T05:54:51.997Z,8.93
2019-01-27T05:57:02.783Z,8.68
2019-01-27T05:59:12.440Z,8.83
2019-01-27T06:01:30.738Z,9.13
2019-01-27T06:03:54.208Z,9.08
2019-01-27T06:06:01.341Z,6.35
2019-01-27T06:08:06.829Z,9.10
2019-01-27T06:10:41.557Z,7.72
2019-01-27T06:13:05.009Z,9.25
2019-01-27T06:15:29.935Z,8.33
2019-01-27T06:17:37.507Z,7.28
2019-01-27T06:19:44.695Z,6.83
2019-01-27T06:21:50.228Z,8.00
2019-01-27T06:24:14.022Z,7.08
2019-01-27T06:26:37.267Z,6.65
2019-01-27T06:29:00.414Z,8.93
2019-01-27T06:31:07.874Z,7.70
2019-01-27T06:33:43.545Z,8.28
2019-01-27T06:35:50.710Z,8.45
2019-01-27T06:37:56.242Z,7.08
2019-01-27T06:40:01.779Z,6.65
2019-01-27T06:42:08.558Z,6.37
2019-01-27T06:44:13.977Z,6.90
2019-01-27T06:46:19.651Z,6.55
2019-01-27T06:48:42.738Z,6.85
2019-01-27T06:51:05.977Z,7.12
2019-01-27T06:53:11.671Z,7.97
2019-01-27T06:55:19.081Z,9.53
2019-01-27T08:29:29.274Z,10.38
2019-01-27T08:32:03.761Z,9.28
2019-01-27T08:34:47.725Z,11.83
2019-01-27T08:46:52.387Z,15.88
2019-01-27T08:49:00.882Z,13.62
2019-01-27T08:51:07.096Z,12.60
2019-01-27T08:53:15.814Z,14.03
2019-01-27T08:55:36.596Z,13.08
2019-01-27T08:57:42.286Z,14.20
2019-01-27T08:59:49.582Z,13.75
2019-01-27T09:02:14.486Z,12.70
2019-01-27T09:04:42.259Z,13.58
2019-01-27T09:07:02.514Z,12.18
2019-01-27T09:09:34.263Z,14.90
2019-01-27T09:11:56.153Z,14.80
2019-01-27T09:14:20.770Z,15.65
2019-01-27T09:16:55.349Z,18.15
2019-01-27T09:19:21.291Z,16.90
2019-01-27T09:21:45.996Z,17.10
2019-01-27T09:26:33.545Z,15.83
2019-01-27T09:28:48.547Z,16.35
2019-01-27T09:31:18.885Z,17.40
2019-01-27T09:33:33.310Z,16.42
2019-01-27T09:36:09.973Z,16.60
2019-01-27T09:38:39.457Z,15.53
2019-01-27T09:41:06.735Z,16.12
2019-01-27T09:43:34.979Z,15.53
2019-01-27T09:46:05.400Z,16.93
2019-01-27T09:48:36.927Z,16.70
2019-01-27T09:50:47.450Z,16.60
2019-01-27T09:53:11.094Z,16.45
2019-01-27T09:55:39.045Z,15.50
2019-01-27T09:58:00.279Z,17.57
2019-01-27T10:00:28.745Z,16.82
2019-01-27T10:02:56.115Z,15.65
2019-01-27T10:05:11.726Z,15.72
2019-01-27T10:07:33.217Z,15.43
2019-01-27T10:09:56.550Z,16.00
2019-01-27T10:14:53.242Z,15.45
2019-01-27T10:17:13.895Z,15.50
2019-01-27T10:19:37.593Z,13.83
2019-01-27T10:21:50.078Z,13.83
2019-01-27T10:24:13.994Z,14.30
2019-01-27T10:26:39.023Z,14.10
2019-01-27T10:28:59.660Z,13.55
2019-01-27T10:31:23.738Z,13.32
2019-01-27T10:33:53.188Z,14.75
2019-01-27T10:36:25.453Z,12.00
2019-01-27T10:38:39.264Z,14.98
2019-01-27T10:41:07.821Z,13.53
2019-01-27T10:43:33.067Z,11.68
2019-01-27T10:45:54.940Z,12.93
2019-01-27T10:48:19.003Z,11.90
2019-01-27T10:50:46.284Z,14.68
2019-01-27T10:53:20.889Z,16.50
2019-01-27T10:55:45.282Z,16.37
2019-01-27T10:58:22.180Z,15.95
2019-01-27T11:00:52.299Z,14.20
2019-01-27T11:03:24.982Z,13.50
2019-01-27T11:05:52.081Z,13.58
2019-01-27T11:08:20.963Z,13.30
2019-01-27T11:10:53.266Z,16.52
2019-01-27T11:13:14.542Z,15.18
2019-01-27T11:15:54.597Z,18.32
2019-01-27T11:18:25.585Z,18.12
2019-01-27T13:21:32.178Z,19.85
2019-01-27T18:15:10.493Z,29.32
2019-01-27T18:17:16.196Z,31.45
2019-01-27T18:19:21.839Z,32.65
2019-01-27T18:21:28.355Z,32.08
2019-01-27T18:23:35.259Z,33.02
2019-01-27T18:25:44.877Z,33.83
2019-01-27T18:27:59.419Z,32.58
2019-01-27T18:47:56.719Z,24.70
2019-01-27T18:50:38.977Z,27.75
2019-01-27T18:53:04.974Z,26.55
2019-01-27T18:57:56.599Z,23.15
2019-01-27T18:59:28.271Z,22.42
2019-01-27T19:02:44.137Z,23.87
2019-01-27T19:09:17.859Z,20.30
2019-01-27T19:11:48.462Z,20.70
2019-01-27T19:14:17.190Z,20.40
2019-01-27T19:16:35.869Z,19.32
2019-01-27T19:19:15.636Z,21.25
2019-01-27T19:21:39.283Z,18.60
2019-01-27T19:24:04.200Z,19.15
2019-01-27T19:26:25.514Z,21.42
2019-01-27T19:28:45.883Z,22.13
2019-01-27T19:31:00.966Z,20.50
2019-01-27T19:33:17.896Z,19.95
2019-01-27T19:35:51.851Z,20.23
2019-01-27T19:38:19.366Z,18.87
2019-01-27T19:40:38.775Z,18.45
2019-01-27T19:42:54.957Z,16.95
2019-01-27T19:45:25.694Z,20.80
2019-01-27T19:47:38.671Z,18.95
2019-01-27T19:49:54.927Z,18.77
2019-01-27T19:52:08.540Z,19.77
2019-01-27T19:54:43.392Z,19.17
2019-01-27T19:57:13.000Z,16.10
2019-01-27T19:59:48.528Z,16.37
2019-01-27T20:02:17.911Z,18.07
2019-01-27T20:04:41.113Z,16.50
2019-01-27T20:06:58.962Z,19.40
2019-01-27T20:09:23.609Z,20.50
2019-01-27T20:11:46.761Z,19.90
2019-01-27T20:14:03.993Z,17.73
2019-01-27T20:16:26.979Z,18.80
2019-01-27T20:19:00.465Z,19.05
2019-01-27T20:21:19.934Z,18.35
2019-01-27T20:23:51.806Z,18.23
2019-01-27T20:26:05.594Z,19.52
2019-01-27T20:28:18.725Z,19.73
2019-01-27T20:30:43.340Z,22.13
2019-01-27T20:33:11.432Z,21.10
2019-01-27T20:35:43.113Z,21.35
2019-01-27T20:38:06.741Z,19.75
2019-01-27T20:40:44.693Z,18.27
2019-01-27T20:43:04.968Z,18.20
2019-01-27T20:45:25.516Z,19.50
2019-01-27T20:47:41.827Z,18.25
2019-01-27T20:50:09.547Z,18.90
2019-01-27T20:52:34.181Z,20.70
2019-01-27T20:54:57.391Z,19.52
2019-01-27T20:57:24.963Z,18.48
2019-01-27T20:59:37.671Z,17.17
2019-01-27T21:02:20.570Z,17.37
2019-01-27T21:04:36.887Z,18.90
2019-01-27T21:06:59.866Z,17.67
2019-01-27T21:09:27.158Z,17.55
2019-01-27T21:11:42.072Z,17.30
2019-01-27T21:14:02.969Z,16.42
2019-01-27T21:16:26.212Z,17.07
2019-01-27T21:18:35.394Z,19.07
2019-01-27T21:20:41.002Z,31.93
2019-01-27T21:22:46.530Z,27.73
2019-01-27T21:24:52.613Z,23.92
2019-01-27T21:26:58.440Z,22.07
2019-01-27T21:29:04.725Z,19.45
2019-01-27T21:31:10.977Z,19.90
2019-01-27T21:33:16.576Z,18.50
2019-01-27T21:35:22.624Z,19.20
2019-01-27T21:37:28.317Z,22.98
2019-01-27T21:39:33.946Z,21.97
2019-01-27T21:41:39.530Z,21.25
2019-01-27T21:43:45.320Z,28.75
2019-01-27T21:45:50.929Z,24.35
2019-01-27T21:47:56.677Z,23.22
2019-01-27T21:50:05.303Z,23.62
2019-01-27T21:52:12.127Z,22.37
2019-01-27T21:54:17.952Z,21.37
2019-01-27T21:56:26.838Z,21.77
2019-01-27T21:58:32.408Z,22.87
2019-01-27T22:00:39.119Z,22.60
2019-01-27T22:02:44.787Z,25.05
2019-01-27T22:04:50.603Z,23.90
2019-01-27T22:06:56.096Z,22.85
2019-01-27T22:09:08.254Z,21.37
2019-01-27T22:11:15.430Z,19.45
2019-01-27T22:13:21.035Z,19.30
2019-01-27T22:15:28.271Z,20.82
2019-01-27T22:17:33.808Z,21.07
2019-01-27T22:19:39.588Z,22.98
2019-01-27T22:21:45.310Z,23.70
2019-01-27T22:23:52.416Z,28.38
2019-01-27T22:25:58.500Z,29.90
2019-01-27T22:28:05.716Z,45.33
2019-01-27T22:30:15.054Z,47.67
2019-01-27T22:32:20.608Z,42.48
2019-01-27T22:34:34.985Z,35.13
2019-01-27T22:36:40.727Z,36.93
2019-01-27T22:38:46.699Z,36.53
2019-01-27T22:40:54.104Z,41.28
2019-01-27T22:42:59.807Z,37.70
2019-01-27T22:45:06.264Z,38.05
2019-01-27T22:47:15.003Z,34.35
2019-01-27T22:49:20.756Z,33.95
2019-01-27T22:51:29.926Z,32.40
2019-01-27T22:53:35.695Z,29.25
2019-01-27T22:55:48.624Z,30.52
